createdAt,value
2023-03-15T00:00:11.729Z,91.66
2023-03-15T00:02:41.647Z,92.12
2023-03-15T00:05:13.387Z,92.75
2023-03-15T00:07:42.847Z,92.94
2023-03-15T00:10:12.237Z,92.49
2023-03-15T00:12:42.632Z,92.68
2023-03-15T00:15:14.445Z,92.47
2023-03-15T00:17:42.887Z,92.40
2023-03-15T00:20:12.352Z,92.37
2023-03-15T00:22:40.495Z,92.27
2023-03-15T00:25:10.923Z,92.50
2023-03-15T00:27:39.038Z,92.30
2023-03-15T00:30:08.098Z,92.30
2023-03-15T00:32:36.256Z,92.42
2023-03-15T00:35:05.159Z,92.52
2023-03-15T00:37:33.563Z,92.69
2023-03-15T00:40:01.962Z,92.51
2023-03-15T00:42:31.449Z,92.43
2023-03-15T00:44:59.584Z,92.74
2023-03-15T00:47:27.714Z,92.90
2023-03-15T00:49:55.903Z,93.07
2023-03-15T00:52:24.384Z,92.99
2023-03-15T00:54:53.992Z,93.32
2023-03-15T00:57:23.446Z,92.98
2023-03-15T00:59:54.728Z,92.99
2023-03-15T01:02:22.894Z,93.18
2023-03-15T01:04:52.271Z,93.24
2023-03-15T01:07:21.426Z,93.65
2023-03-15T01:09:49.592Z,93.81
2023-03-15T01:12:17.787Z,94.22
2023-03-15T01:14:45.966Z,94.51
2023-03-15T01:17:15.488Z,94.73
2023-03-15T01:19:43.676Z,94.85
2023-03-15T01:22:11.836Z,95.06
2023-03-15T01:24:40.046Z,95.74
2023-03-15T01:27:08.178Z,95.78
2023-03-15T01:29:36.371Z,96.13
2023-03-15T01:32:05.605Z,96.31
2023-03-15T01:34:36.705Z,96.64
2023-03-15T01:37:05.072Z,96.73
2023-03-15T01:39:39.213Z,96.65
2023-03-15T01:42:07.875Z,96.68
2023-03-15T01:45:03.132Z,96.70
2023-03-15T01:47:32.817Z,97.06
2023-03-15T01:50:05.612Z,96.73
2023-03-15T01:52:37.210Z,96.46
2023-03-15T01:55:11.110Z,97.12
2023-03-15T01:57:48.319Z,96.82
2023-03-15T02:00:18.510Z,96.70
2023-03-15T02:03:04.697Z,97.05
2023-03-15T02:05:38.150Z,97.09
2023-03-15T02:08:10.077Z,96.97
2023-03-15T02:10:44.603Z,96.99
2023-03-15T02:13:17.570Z,97.18
2023-03-15T02:15:47.511Z,97.55
2023-03-15T02:18:22.423Z,97.61
2023-03-15T02:21:00.375Z,97.70
2023-03-15T02:23:29.907Z,97.43
2023-03-15T02:26:13.568Z,97.65
2023-03-15T02:28:43.482Z,97.70
2023-03-15T02:31:14.178Z,98.18
2023-03-15T02:33:45.382Z,98.12
2023-03-15T02:36:19.583Z,98.19
2023-03-15T02:38:48.287Z,98.29
2023-03-15T02:41:20.129Z,98.36
2023-03-15T02:43:54.107Z,98.49
2023-03-15T02:46:23.055Z,98.18
2023-03-15T02:48:54.115Z,98.50
2023-03-15T02:51:24.663Z,98.31
2023-03-15T02:53:52.963Z,98.51
2023-03-15T02:56:21.200Z,98.49
2023-03-15T02:58:50.848Z,98.01
2023-03-15T03:01:20.170Z,98.20
2023-03-15T03:03:48.692Z,98.21
2023-03-15T03:06:18.017Z,98.34
2023-03-15T03:08:48.454Z,98.46
2023-03-15T03:11:20.295Z,98.53
2023-03-15T03:13:50.084Z,98.62
2023-03-15T03:16:18.372Z,98.73
2023-03-15T03:18:46.552Z,98.54
2023-03-15T03:21:15.089Z,98.19
2023-03-15T03:23:46.237Z,98.25
2023-03-15T03:26:17.460Z,98.34
2023-03-15T03:28:49.645Z,98.23
2023-03-15T03:31:21.285Z,98.45
2023-03-15T03:33:50.650Z,98.66
2023-03-15T03:36:19.898Z,98.61
2023-03-15T03:38:48.863Z,98.63
2023-03-15T03:41:18.434Z,98.59
2023-03-15T03:43:46.659Z,98.61
2023-03-15T03:46:15.000Z,98.65
2023-03-15T03:48:49.637Z,98.47
2023-03-15T03:51:17.804Z,98.51
2023-03-15T03:53:45.993Z,98.63
2023-03-15T03:56:14.111Z,98.51
2023-03-15T03:58:42.455Z,98.59
2023-03-15T04:01:33.825Z,98.73
2023-03-15T04:04:03.438Z,98.97
2023-03-15T04:06:32.213Z,99.13
2023-03-15T04:09:02.708Z,99.44
2023-03-15T04:11:37.719Z,99.25
2023-03-15T04:14:08.724Z,99.45
2023-03-15T04:16:37.479Z,99.45
2023-03-15T04:19:12.767Z,99.58
2023-03-15T04:21:47.357Z,99.71
2023-03-15T04:24:39.748Z,100.00
2023-03-15T04:27:14.847Z,100.00
2023-03-15T04:30:05.304Z,100.00
2023-03-15T04:32:58.865Z,100.00
2023-03-15T04:35:48.640Z,100.00
2023-03-15T04:38:35.654Z,100.00
2023-03-15T04:41:28.024Z,100.00
2023-03-15T04:44:02.319Z,100.00
2023-03-15T04:46:46.738Z,100.00
2023-03-15T04:49:35.173Z,100.00
2023-03-15T04:52:23.243Z,100.00
2023-03-15T04:55:29.610Z,100.00
2023-03-15T04:58:06.511Z,100.00
2023-03-15T05:00:44.724Z,99.88
2023-03-15T05:03:33.412Z,100.00
2023-03-15T05:06:09.998Z,100.00
2023-03-15T05:08:52.885Z,99.77
2023-03-15T05:11:21.333Z,99.89
2023-03-15T05:14:07.550Z,99.77
2023-03-15T05:16:44.231Z,99.65
2023-03-15T05:19:34.616Z,99.33
2023-03-15T05:22:25.956Z,99.22
2023-03-15T05:25:19.502Z,99.25
2023-03-15T05:28:05.022Z,99.43
2023-03-15T05:30:52.068Z,99.05
2023-03-15T05:33:46.893Z,99.06
2023-03-15T05:36:41.820Z,98.76
2023-03-15T05:39:28.514Z,98.71
2023-03-15T05:42:14.040Z,98.29
2023-03-15T05:45:13.709Z,98.16
2023-03-15T05:48:08.093Z,98.05
2023-03-15T05:50:52.825Z,98.02
2023-03-15T05:53:33.091Z,97.81
2023-03-15T05:56:22.601Z,97.52
2023-03-15T05:59:16.611Z,97.39
2023-03-15T06:02:04.684Z,96.91
2023-03-15T06:04:41.632Z,96.47
2023-03-15T06:07:12.521Z,96.34
2023-03-15T06:09:40.666Z,95.79
2023-03-15T06:12:09.164Z,95.28
2023-03-15T06:14:40.017Z,95.05
2023-03-15T06:17:09.812Z,94.77
2023-03-15T06:19:39.081Z,93.96
2023-03-15T06:22:07.645Z,93.64
2023-03-15T06:24:46.713Z,93.03
2023-03-15T06:27:15.017Z,92.79
2023-03-15T06:29:44.827Z,92.68
2023-03-15T06:32:13.281Z,92.46
2023-03-15T06:34:43.830Z,91.95
2023-03-15T06:37:22.733Z,91.88
2023-03-15T06:39:57.572Z,91.38
2023-03-15T06:42:26.917Z,91.01
2023-03-15T06:44:58.666Z,91.17
2023-03-15T06:47:26.878Z,89.46
2023-03-15T06:49:56.819Z,88.53
2023-03-15T06:52:25.380Z,88.23
2023-03-15T06:54:53.812Z,88.03
2023-03-15T06:57:21.963Z,88.00
2023-03-15T06:59:50.602Z,88.55
2023-03-15T07:02:20.117Z,88.80
2023-03-15T07:04:48.858Z,88.81
2023-03-15T07:07:17.131Z,89.23
2023-03-15T07:09:45.374Z,89.01
2023-03-15T07:12:13.966Z,88.46
2023-03-15T07:14:42.066Z,87.54
2023-03-15T07:17:10.332Z,87.02
2023-03-15T07:19:50.137Z,86.38
2023-03-15T07:22:23.803Z,85.77
2023-03-15T07:24:52.054Z,85.15
2023-03-15T07:27:20.208Z,84.39
2023-03-15T07:29:48.593Z,84.59
2023-03-15T07:32:16.861Z,83.87
2023-03-15T07:34:46.418Z,83.29
2023-03-15T07:37:14.575Z,83.13
2023-03-15T07:39:42.744Z,82.94
2023-03-15T07:42:11.524Z,83.21
2023-03-15T07:44:44.073Z,83.14
2023-03-15T07:47:12.245Z,82.33
2023-03-15T07:49:40.599Z,83.11
2023-03-15T07:52:10.383Z,83.34
2023-03-15T07:54:38.544Z,83.74
2023-03-15T07:57:07.037Z,83.90
2023-03-15T07:59:35.162Z,85.34
2023-03-15T08:02:03.490Z,84.83
2023-03-15T08:04:31.709Z,85.34
2023-03-15T08:06:59.935Z,84.90
2023-03-15T08:09:29.622Z,85.00
2023-03-15T08:11:57.748Z,85.20
2023-03-15T08:14:26.024Z,85.41
2023-03-15T08:16:54.141Z,85.74
2023-03-15T08:19:22.769Z,85.42
2023-03-15T08:21:53.962Z,85.67
2023-03-15T08:24:22.612Z,85.57
2023-03-15T08:26:52.183Z,85.71
2023-03-15T08:29:20.298Z,85.42
2023-03-15T08:31:48.520Z,85.08
2023-03-15T08:34:17.088Z,83.84
2023-03-15T08:36:47.583Z,83.29
2023-03-15T08:39:15.947Z,81.80
2023-03-15T08:41:45.573Z,80.82
2023-03-15T08:44:15.172Z,80.15
2023-03-15T08:46:43.434Z,80.65
2023-03-15T08:49:12.173Z,81.59
2023-03-15T08:51:40.977Z,82.16
2023-03-15T08:54:09.126Z,81.07
2023-03-15T08:56:37.335Z,80.30
2023-03-15T08:59:05.492Z,80.68
2023-03-15T09:01:35.883Z,81.64
2023-03-15T09:04:04.282Z,81.45
2023-03-15T09:06:32.463Z,81.26
2023-03-15T09:09:01.419Z,80.96
2023-03-15T09:11:29.672Z,80.69
2023-03-15T09:13:57.798Z,81.08
2023-03-15T09:16:26.151Z,82.10
2023-03-15T09:18:55.634Z,82.86
2023-03-15T09:21:24.676Z,82.86
2023-03-15T09:23:52.788Z,82.66
2023-03-15T09:26:20.947Z,83.36
2023-03-15T09:28:49.075Z,83.38
2023-03-15T09:31:18.486Z,82.48
2023-03-15T09:33:46.735Z,82.82
2023-03-15T09:36:16.243Z,81.64
2023-03-15T09:38:44.769Z,80.82
2023-03-15T09:41:19.420Z,80.19
2023-03-15T09:44:01.024Z,78.93
2023-03-15T09:46:32.249Z,78.02
2023-03-15T09:49:09.434Z,77.45
2023-03-15T09:51:47.855Z,76.11
2023-03-15T09:54:19.492Z,75.15
2023-03-15T09:56:54.687Z,75.96
2023-03-15T09:59:27.430Z,75.51
2023-03-15T10:01:57.374Z,75.38
2023-03-15T10:04:29.646Z,75.42
2023-03-15T10:07:01.779Z,75.44
2023-03-15T10:09:34.723Z,74.65
2023-03-15T10:12:05.655Z,72.56
2023-03-15T10:14:52.197Z,71.95
2023-03-15T10:17:27.333Z,72.64
2023-03-15T10:20:01.491Z,73.50
2023-03-15T10:22:36.615Z,72.46
2023-03-15T10:25:15.512Z,73.41
2023-03-15T10:27:58.155Z,72.53
2023-03-15T10:30:27.919Z,72.81
2023-03-15T10:33:00.841Z,72.74
2023-03-15T10:35:29.522Z,72.52
2023-03-15T10:37:59.285Z,70.71
2023-03-15T10:40:42.547Z,70.78
2023-03-15T10:43:18.746Z,70.17
2023-03-15T10:46:01.778Z,69.64
2023-03-15T10:48:31.880Z,69.31
2023-03-15T10:51:05.654Z,69.38
2023-03-15T10:53:35.567Z,69.86
2023-03-15T10:56:08.399Z,71.47
2023-03-15T10:59:02.302Z,70.00
2023-03-15T11:01:37.425Z,69.30
2023-03-15T11:04:16.152Z,67.90
2023-03-15T11:06:47.969Z,69.15
2023-03-15T11:09:19.263Z,69.62
2023-03-15T11:11:58.373Z,69.86
2023-03-15T11:14:27.480Z,69.69
2023-03-15T11:16:58.173Z,69.82
2023-03-15T11:19:28.872Z,69.88
2023-03-15T11:21:59.242Z,70.25
2023-03-15T11:24:30.640Z,70.35
2023-03-15T11:27:01.696Z,70.12
2023-03-15T11:29:32.616Z,69.55
2023-03-15T11:32:02.428Z,70.44
2023-03-15T11:34:40.062Z,68.16
2023-03-15T11:37:16.494Z,67.60
2023-03-15T11:39:58.741Z,67.56
2023-03-15T11:42:35.077Z,66.29
2023-03-15T11:45:07.983Z,66.90
2023-03-15T11:47:44.009Z,66.05
2023-03-15T11:50:16.891Z,64.72
2023-03-15T11:52:50.452Z,64.91
2023-03-15T11:55:24.102Z,65.46
2023-03-15T11:57:53.345Z,66.51
2023-03-15T12:00:51.743Z,67.58
2023-03-15T12:03:36.451Z,67.24
2023-03-15T12:06:41.298Z,65.78
2023-03-15T12:09:40.836Z,64.00
2023-03-15T12:12:41.686Z,63.61
2023-03-15T12:15:44.709Z,63.80
2023-03-15T12:18:19.722Z,63.06
2023-03-15T12:20:54.147Z,63.86
2023-03-15T12:23:34.892Z,64.27
2023-03-15T12:26:10.478Z,65.11
2023-03-15T12:28:45.148Z,64.67
2023-03-15T12:31:15.074Z,64.45
2023-03-15T12:33:49.658Z,64.40
2023-03-15T12:36:28.138Z,64.44
2023-03-15T12:39:04.512Z,64.00
2023-03-15T12:41:39.737Z,63.55
2023-03-15T12:44:39.751Z,64.22
2023-03-15T12:47:09.382Z,64.91
2023-03-15T12:49:42.830Z,65.67
2023-03-15T12:52:30.067Z,66.05
2023-03-15T12:55:05.790Z,64.21
2023-03-15T12:57:39.920Z,64.95
2023-03-15T13:00:15.093Z,62.08
2023-03-15T13:02:47.102Z,60.79
2023-03-15T13:05:24.905Z,61.25
2023-03-15T13:07:59.616Z,62.22
2023-03-15T13:10:36.990Z,61.80
2023-03-15T13:13:34.902Z,61.56
2023-03-15T13:16:16.359Z,62.25
2023-03-15T13:18:53.871Z,63.54
2023-03-15T13:21:27.856Z,65.11
2023-03-15T13:23:59.319Z,64.82
2023-03-15T13:26:40.576Z,64.01
2023-03-15T13:29:14.210Z,62.08
2023-03-15T13:31:45.144Z,60.63
2023-03-15T13:34:16.161Z,59.49
2023-03-15T13:36:47.323Z,59.35
2023-03-15T13:39:20.637Z,59.60
2023-03-15T13:41:48.913Z,59.07
2023-03-15T13:44:20.907Z,57.96
2023-03-15T13:46:52.651Z,58.56
2023-03-15T13:49:21.696Z,58.00
2023-03-15T13:51:51.487Z,57.49
2023-03-15T13:54:25.175Z,59.63
2023-03-15T13:57:01.467Z,58.65
2023-03-15T13:59:33.725Z,57.45
2023-03-15T14:02:05.930Z,56.57
2023-03-15T14:04:38.044Z,56.00
2023-03-15T14:07:27.367Z,56.95
2023-03-15T14:10:24.082Z,57.51
2023-03-15T14:12:54.064Z,56.83
2023-03-15T14:15:26.521Z,55.79
2023-03-15T14:18:01.949Z,54.95
2023-03-15T14:20:33.633Z,54.73
2023-03-15T14:23:03.609Z,54.14
2023-03-15T14:25:36.393Z,55.51
2023-03-15T14:28:06.225Z,55.55
2023-03-15T14:30:38.014Z,56.20
2023-03-15T14:33:08.858Z,55.14
2023-03-15T14:35:46.044Z,55.24
2023-03-15T14:38:22.110Z,55.60
2023-03-15T14:40:51.691Z,55.56
2023-03-15T14:43:19.859Z,55.79
2023-03-15T14:45:49.689Z,54.67
2023-03-15T14:48:28.006Z,55.92
2023-03-15T14:50:57.265Z,59.33
2023-03-15T14:53:27.934Z,62.36
2023-03-15T14:55:56.375Z,66.63
2023-03-15T14:58:24.532Z,71.41
2023-03-15T15:00:55.110Z,75.28
2023-03-15T15:03:32.784Z,77.48
2023-03-15T15:06:02.541Z,79.72
2023-03-15T15:08:33.428Z,80.79
2023-03-15T15:11:02.702Z,80.57
2023-03-15T15:13:32.460Z,80.29
2023-03-15T15:16:00.895Z,80.31
2023-03-15T15:18:31.983Z,80.44
2023-03-15T15:21:02.946Z,81.32
2023-03-15T15:23:34.896Z,81.27
2023-03-15T15:26:05.438Z,81.18
2023-03-15T15:28:37.150Z,81.27
2023-03-15T15:31:07.044Z,79.50
2023-03-15T15:33:36.668Z,79.50
2023-03-15T15:36:05.338Z,79.21
2023-03-15T15:38:38.695Z,78.74
2023-03-15T15:41:12.300Z,78.81
2023-03-15T15:43:40.681Z,78.20
2023-03-15T15:46:11.227Z,77.94
2023-03-15T15:48:41.741Z,75.95
2023-03-15T15:51:22.380Z,75.09
2023-03-15T15:53:51.200Z,74.28
2023-03-15T15:56:19.379Z,72.80
2023-03-15T15:58:47.863Z,71.96
2023-03-15T16:01:17.106Z,70.78
2023-03-15T16:03:46.560Z,70.01
2023-03-15T16:06:19.014Z,68.52
2023-03-15T16:08:48.227Z,69.38
2023-03-15T16:11:17.357Z,68.64
2023-03-15T16:13:46.916Z,68.54
2023-03-15T16:16:16.623Z,69.19
2023-03-15T16:18:46.440Z,69.79
2023-03-15T16:21:24.356Z,70.72
2023-03-15T16:24:00.150Z,70.97
2023-03-15T16:26:28.924Z,71.56
2023-03-15T16:28:57.063Z,73.01
2023-03-15T16:31:25.321Z,73.12
2023-03-15T16:33:54.808Z,73.29
2023-03-15T16:36:23.521Z,73.90
2023-03-15T16:38:51.712Z,73.99
2023-03-15T16:41:19.965Z,73.91
2023-03-15T16:43:49.467Z,74.65
2023-03-15T16:46:18.406Z,75.21
2023-03-15T16:48:46.616Z,75.77
2023-03-15T16:51:17.167Z,76.39
2023-03-15T16:53:45.538Z,76.20
2023-03-15T16:56:15.556Z,76.73
2023-03-15T16:58:45.211Z,77.31
2023-03-15T17:01:13.675Z,78.27
2023-03-15T17:03:42.089Z,79.04
2023-03-15T17:06:20.052Z,79.48
2023-03-15T17:08:48.689Z,79.75
2023-03-15T17:11:18.592Z,80.18
2023-03-15T17:13:46.985Z,79.62
2023-03-15T17:16:16.676Z,79.57
2023-03-15T17:18:47.794Z,78.77
2023-03-15T17:21:21.245Z,79.42
2023-03-15T17:23:49.468Z,79.40
2023-03-15T17:26:19.763Z,79.19
2023-03-15T17:28:48.105Z,79.12
2023-03-15T17:31:24.873Z,79.34
2023-03-15T17:33:53.591Z,79.09
2023-03-15T17:36:25.117Z,79.17
2023-03-15T17:38:54.481Z,79.19
2023-03-15T17:41:25.605Z,79.33
2023-03-15T17:43:53.849Z,80.06
2023-03-15T17:46:28.186Z,80.79
2023-03-15T17:48:57.016Z,80.82
2023-03-15T17:51:30.146Z,81.62
2023-03-15T17:53:59.529Z,82.11
2023-03-15T17:56:28.649Z,82.74
2023-03-15T17:58:56.852Z,82.87
2023-03-15T18:01:28.098Z,82.90
2023-03-15T18:03:57.184Z,82.77
2023-03-15T18:06:26.873Z,82.22
2023-03-15T18:08:55.047Z,82.02
2023-03-15T18:11:26.270Z,81.78
2023-03-15T18:13:55.455Z,81.34
2023-03-15T18:16:24.080Z,80.97
2023-03-15T18:18:52.550Z,80.83
2023-03-15T18:21:23.541Z,81.14
2023-03-15T18:23:53.401Z,81.15
2023-03-15T18:26:21.962Z,81.57
2023-03-15T18:28:50.157Z,82.11
2023-03-15T18:31:20.590Z,82.07
2023-03-15T18:33:49.549Z,82.47
2023-03-15T18:36:18.234Z,82.66
2023-03-15T18:38:46.917Z,82.82
2023-03-15T18:41:20.816Z,83.09
2023-03-15T18:43:51.360Z,83.59
2023-03-15T18:46:21.061Z,83.95
2023-03-15T18:48:49.950Z,84.15
2023-03-15T18:51:18.346Z,84.98
2023-03-15T18:53:46.651Z,85.43
2023-03-15T18:56:19.469Z,85.84
2023-03-15T18:58:47.791Z,86.21
2023-03-15T19:01:16.796Z,86.63
2023-03-15T19:03:45.475Z,87.04
2023-03-15T19:06:14.391Z,87.27
2023-03-15T19:08:42.858Z,87.57
2023-03-15T19:11:11.537Z,87.95
2023-03-15T19:13:41.396Z,88.10
2023-03-15T19:16:09.496Z,88.47
2023-03-15T19:18:40.739Z,88.67
2023-03-15T19:21:08.912Z,88.83
2023-03-15T19:23:37.191Z,89.07
2023-03-15T19:26:05.704Z,89.22
2023-03-15T19:28:34.754Z,89.25
2023-03-15T19:31:04.361Z,89.37
2023-03-15T19:33:32.560Z,89.78
2023-03-15T19:36:01.640Z,90.15
2023-03-15T19:38:30.169Z,90.48
2023-03-15T19:41:03.622Z,90.93
2023-03-15T19:43:32.581Z,90.89
2023-03-15T19:46:01.379Z,90.99
2023-03-15T19:48:30.996Z,91.27
2023-03-15T19:50:59.118Z,91.41
2023-03-15T19:53:27.461Z,91.63
2023-03-15T19:55:55.579Z,91.78
2023-03-15T19:58:23.744Z,91.87
2023-03-15T20:00:54.185Z,92.13
2023-03-15T20:03:22.311Z,92.28
2023-03-15T20:05:52.138Z,92.27
2023-03-15T20:08:20.871Z,92.45
2023-03-15T20:10:49.420Z,92.51
2023-03-15T20:13:17.554Z,92.44
2023-03-15T20:15:45.699Z,92.67
2023-03-15T20:18:15.860Z,92.82
2023-03-15T20:20:44.231Z,92.86
2023-03-15T20:23:14.556Z,93.07
2023-03-15T20:25:43.183Z,93.31
2023-03-15T20:28:11.704Z,93.50
2023-03-15T20:30:41.823Z,93.90
2023-03-15T20:33:11.163Z,94.24
2023-03-15T20:35:39.362Z,94.04
2023-03-15T20:38:08.174Z,94.10
2023-03-15T20:40:39.440Z,93.99
2023-03-15T20:43:07.943Z,94.50
2023-03-15T20:45:36.069Z,94.69
2023-03-15T20:48:04.970Z,94.55
2023-03-15T20:50:33.141Z,94.86
2023-03-15T20:53:03.643Z,94.89
2023-03-15T20:55:32.731Z,95.33
2023-03-15T20:58:02.212Z,95.33
2023-03-15T21:00:30.364Z,95.25
2023-03-15T21:03:07.500Z,95.44
2023-03-15T21:05:35.714Z,95.76
2023-03-15T21:08:04.121Z,95.94
2023-03-15T21:10:32.245Z,96.05
2023-03-15T21:13:08.329Z,95.88
2023-03-15T21:15:44.294Z,95.98
2023-03-15T21:18:12.676Z,96.05
2023-03-15T21:20:41.138Z,95.88
2023-03-15T21:23:10.022Z,95.73
2023-03-15T21:25:38.975Z,95.32
2023-03-15T21:28:08.445Z,95.10
2023-03-15T21:30:39.561Z,95.15
2023-03-15T21:33:08.101Z,95.51
2023-03-15T21:35:36.622Z,95.64
2023-03-15T21:38:04.779Z,95.80
2023-03-15T21:40:32.962Z,95.75
2023-03-15T21:43:01.089Z,95.93
2023-03-15T21:45:30.972Z,96.50
2023-03-15T21:47:59.212Z,96.37
2023-03-15T21:50:27.513Z,96.73
2023-03-15T21:52:55.759Z,97.01
2023-03-15T21:55:23.886Z,97.37
2023-03-15T21:57:52.663Z,97.42
2023-03-15T22:00:23.170Z,97.59
2023-03-15T22:02:55.703Z,97.87
2023-03-15T22:05:25.222Z,98.16
2023-03-15T22:07:53.351Z,98.31
2023-03-15T22:10:23.190Z,98.39
2023-03-15T22:12:53.932Z,98.38
2023-03-15T22:15:22.988Z,98.12
2023-03-15T22:17:52.792Z,98.29
2023-03-15T22:20:21.102Z,98.20
2023-03-15T22:22:50.021Z,98.47
2023-03-15T22:25:18.593Z,98.87
2023-03-15T22:27:47.161Z,98.93
2023-03-15T22:30:15.957Z,99.00
2023-03-15T22:32:44.818Z,99.20
2023-03-15T22:35:16.241Z,99.41
2023-03-15T22:37:45.000Z,99.78
2023-03-15T22:40:15.096Z,100.00
2023-03-15T22:42:44.017Z,100.00
2023-03-15T22:45:12.515Z,100.00
2023-03-15T22:47:40.635Z,100.00
2023-03-15T22:50:10.714Z,100.00
2023-03-15T22:52:40.419Z,100.00
2023-03-15T22:55:10.256Z,100.00
2023-03-15T22:57:38.503Z,100.00
2023-03-15T23:00:13.496Z,100.00
2023-03-15T23:02:42.084Z,100.00
2023-03-15T23:05:11.705Z,100.00
2023-03-15T23:07:42.373Z,100.00
2023-03-15T23:10:12.582Z,100.00
2023-03-15T23:12:41.165Z,100.00
2023-03-15T23:15:12.006Z,100.00
2023-03-15T23:17:40.163Z,100.00
2023-03-15T23:20:10.154Z,100.00
2023-03-15T23:22:38.288Z,100.00
2023-03-15T23:25:08.700Z,100.00
2023-03-15T23:27:37.023Z,100.00
2023-03-15T23:30:06.559Z,100.00
2023-03-15T23:32:36.453Z,100.00
2023-03-15T23:35:06.169Z,100.00
2023-03-15T23:37:34.456Z,100.00
2023-03-15T23:40:07.711Z,100.00
2023-03-15T23:42:37.679Z,100.00
2023-03-15T23:45:06.997Z,100.00
2023-03-15T23:47:35.330Z,100.00
2023-03-15T23:50:03.474Z,100.00
2023-03-15T23:52:31.878Z,100.00
2023-03-15T23:55:00.273Z,100.00
2023-03-15T23:57:29.504Z,100.00
2023-03-15T23:59:59.049Z,100.00
